Time;durP1;ratioP1;P1;durP2;ratioP2;P2;SDS_P1;SDS_P2;PMS_P1;PMS_P2;Temp;Humidity;BMP_temperature;BMP_pressure;BME280_temperature;BME280_humidity;BME280_pressure;Samples;Min_cycle;Max_cycle;Signal;HPM_P1;HPM_P2
2022/08/08 00:02:31;;;;;;;;;;;;;;;15.29;73.14;101206.44;4994035;28;1685;-86
2022/08/08 00:05:13;;;;;;;;;;;;;;;15.22;73.50;101209.53;5008755;28;1514;-86
2022/08/08 00:07:58;;;;;;;;;;;;;;;15.16;72.73;101216.22;5005753;28;1503;-87
2022/08/08 00:10:37;;;;;;;;;;;;;;;15.01;73.64;101216.41;5010674;28;1338;-87
2022/08/08 00:13:12;;;;;;;;;;;;;;;14.97;74.15;101210.63;5012559;28;1979;-87
2022/08/08 00:15:40;;;;;;;;;;;;;;;14.85;74.96;101212.16;5013288;28;1439;-86
2022/08/08 00:18:14;;;;;;;;;;;;;;;14.97;74.55;101207.09;5013234;28;1401;-87
2022/08/08 00:20:50;;;;;;;;;;;;;;;14.97;73.95;101202.38;5009909;28;1578;-86
2022/08/08 00:23:28;;;;;;;;;;;;;;;14.54;75.50;101206.97;5009992;28;1351;-87
2022/08/08 00:25:57;;;;;;;;;;;;;;;14.84;74.60;101203.06;5023501;28;1428;-87
2022/08/08 00:31:26;;;;;;;;;;;;;;;14.70;74.48;101204.88;5012553;28;1357;-88
2022/08/08 00:35:09;;;;;;;;;;;;;;;14.71;75.62;101207.34;5011220;28;1944;-87
2022/08/08 00:36:55;;;;;;;;;;;;;;;14.72;74.25;101203.47;5007560;28;1413;-88
2022/08/08 00:39:29;;;;;;;;;;;;;;;14.54;74.45;101209.72;5011829;28;1349;-87
2022/08/08 00:42:14;;;;;;;;;;;;;;;14.52;75.09;101209.19;5012656;28;1385;-88
2022/08/08 00:44:45;;;;;;;;;;;;;;;14.67;74.19;101198.00;5012330;28;1425;-89
2022/08/08 00:47:40;;;;;;;;;;;;;;;14.70;73.99;101202.94;5013761;28;1496;-87
2022/08/08 00:50:20;;;;;;;;;;;;;;;14.54;74.68;101200.63;5011964;28;1431;-87
2022/08/08 00:53:00;;;;;;;;;;;;;;;14.57;74.53;101200.03;5008113;28;1023;-87
2022/08/08 00:55:34;;;;;;;;;;;;;;;14.44;75.14;101201.53;5010699;28;1527;-86
2022/08/08 00:58:08;;;;;;;;;;;;;;;14.34;76.75;101207.09;5012703;28;1519;-87
2022/08/08 01:00:57;;;;;;;;;;;;;;;13.96;76.26;101161.97;5004950;28;1434;-87
2022/08/08 01:03:41;;;;;;;;;;;;;;;14.38;75.28;101206.25;5002582;28;1461;-86
2022/08/08 01:06:06;;;;;;;;;;;;;;;14.24;76.74;101201.69;5008452;28;1407;-87
2022/08/08 01:08:34;;;;;;;;;;;;;;;14.15;76.51;101204.22;5027652;28;1344;-87
2022/08/08 01:11:18;;;;;;;;;;;;;;;14.22;76.52;101206.63;5011526;28;1522;-87
2022/08/08 01:13:43;;;;;;;;;;;;;;;14.36;75.47;101205.72;5012170;28;1938;-87
2022/08/08 01:16:27;;;;;;;;;;;;;;;14.34;74.42;101196.91;5011970;28;1441;-87
2022/08/08 01:18:56;;;;;;;;;;;;;;;14.27;74.64;101198.34;5002121;28;1426;-86
2022/08/08 01:22:06;;;;;;;;;;;;;;;14.13;75.71;101208.34;5033641;28;1303;-86
2022/08/08 01:24:40;;;;;;;;;;;;;;;14.18;75.32;101200.91;4995105;28;1625;-86
2022/08/08 01:30:08;;;;;;;;;;;;;;;13.96;76.06;101206.00;5008141;28;1444;-86
2022/08/08 01:32:55;;;;;;;;;;;;;;;14.06;76.34;101207.88;5029778;28;1515;-86
2022/08/08 01:35:36;;;;;;;;;;;;;;;14.13;76.42;101211.94;5013500;28;1410;-86
2022/08/08 01:38:23;;;;;;;;;;;;;;;14.09;76.15;101204.56;5027384;28;1494;-87
2022/08/08 01:40:58;;;;;;;;;;;;;;;14.03;76.64;101207.31;5011908;28;1388;-87
2022/08/08 01:43:26;;;;;;;;;;;;;;;14.10;75.44;101211.72;5015930;28;1258;-87
2022/08/08 01:46:13;;;;;;;;;;;;;;;13.92;75.81;101205.78;5017583;28;1431;-86
2022/08/08 01:49:07;;;;;;;;;;;;;;;13.92;76.90;101211.28;5004727;28;1570;-86
2022/08/08 01:51:46;;;;;;;;;;;;;;;13.86;76.66;101209.66;5002404;28;1612;-87
2022/08/08 01:54:14;;;;;;;;;;;;;;;13.73;77.51;101207.53;5014250;28;1879;-87
2022/08/08 01:57:12;;;;;;;;;;;;;;;13.83;76.76;101207.47;5017245;28;1563;-88
2022/08/08 01:59:56;;;;;;;;;;;;;;;13.94;76.23;101211.81;4984911;28;1487;-87
2022/08/08 02:02:31;;;;;;;;;;;;;;;13.74;76.06;101206.44;5014725;28;1504;-87
2022/08/08 02:04:56;;;;;;;;;;;;;;;13.67;76.09;101205.09;5009911;28;1479;-86
2022/08/08 02:07:25;;;;;;;;;;;;;;;13.73;76.46;101203.97;5014267;28;1706;-87
2022/08/08 02:09:59;;;;;;;;;;;;;;;13.65;76.77;101213.63;5013682;28;1427;-87
2022/08/08 02:12:32;;;;;;;;;;;;;;;13.72;76.70;101211.38;5012065;28;1419;-86
2022/08/08 02:15:03;;;;;;;;;;;;;;;13.57;76.77;101209.56;5015056;28;1875;-86
2022/08/08 02:17:33;;;;;;;;;;;;;;;13.63;75.86;101213.91;5014514;28;1313;-86
2022/08/08 02:20:08;;;;;;;;;;;;;;;13.51;75.67;101209.88;5014411;28;1365;-87
2022/08/08 02:22:45;;;;;;;;;;;;;;;13.59;76.11;101209.28;5014239;28;1334;-87
2022/08/08 02:25:14;;;;;;;;;;;;;;;13.56;76.02;101216.16;5011514;28;1560;-86
2022/08/08 02:27:42;;;;;;;;;;;;;;;13.40;76.27;101222.00;5012917;28;1293;-86
2022/08/08 02:30:10;;;;;;;;;;;;;;;13.47;76.33;101225.28;5014307;28;1369;-87
2022/08/08 02:32:41;;;;;;;;;;;;;;;13.36;77.27;101229.16;5008568;28;1186;-86
2022/08/08 02:35:20;;;;;;;;;;;;;;;13.38;77.50;101225.03;5013121;28;1949;-86
2022/08/08 02:38:00;;;;;;;;;;;;;;;13.45;77.53;101228.31;5010097;28;1635;-86
2022/08/08 02:40:40;;;;;;;;;;;;;;;13.36;76.48;101231.91;5015649;28;1222;-87
2022/08/08 02:43:18;;;;;;;;;;;;;;;13.24;77.85;101222.09;5015034;28;1361;-86
2022/08/08 02:46:01;;;;;;;;;;;;;;;13.07;77.40;101221.56;5015782;28;1428;-86
2022/08/08 02:48:55;;;;;;;;;;;;;;;13.03;78.27;101227.88;5013824;28;1528;-88
2022/08/08 02:51:32;;;;;;;;;;;;;;;13.24;77.86;101219.34;5012350;28;1525;-87
2022/08/08 02:54:18;;;;;;;;;;;;;;;13.25;77.45;101217.41;5013582;28;1894;-87
2022/08/08 02:56:49;;;;;;;;;;;;;;;13.06;78.12;101217.16;4994775;28;1373;-86
2022/08/08 02:59:21;;;;;;;;;;;;;;;13.11;78.33;101225.38;5014716;28;1536;-88
2022/08/08 03:01:46;;;;;;;;;;;;;;;12.87;79.08;101224.34;5010046;28;1660;-86
2022/08/08 03:04:30;;;;;;;;;;;;;;;13.05;78.89;101229.25;5014609;28;1416;-86
2022/08/08 03:07:14;;;;;;;;;;;;;;;13.07;78.49;101229.81;5014838;28;1455;-87
2022/08/08 03:09:54;;;;;;;;;;;;;;;13.14;78.12;101235.03;5024593;28;1367;-87
2022/08/08 03:12:22;;;;;;;;;;;;;;;12.95;78.07;101234.78;4997546;28;1545;-87
2022/08/08 03:14:55;;;;;;;;;;;;;;;12.97;78.05;101235.31;5010790;28;1914;-88
2022/08/08 03:17:27;;;;;;;;;;;;;;;12.95;78.68;101229.28;5014250;28;1487;-87
2022/08/08 03:19:59;;;;;;;;;;;;;;;12.91;78.08;101238.38;4993843;28;1450;-86
2022/08/08 03:22:25;;;;;;;;;;;;;;;12.66;79.04;101233.75;5005561;28;1340;-87
2022/08/08 03:24:50;;;;;;;;;;;;;;;12.41;79.81;101235.41;5012970;28;1427;-87
2022/08/08 03:27:18;;;;;;;;;;;;;;;12.43;79.84;101226.88;5013460;28;1246;-88
2022/08/08 03:29:48;;;;;;;;;;;;;;;12.32;79.81;101231.56;5013449;28;1533;-87
2022/08/08 03:35:04;;;;;;;;;;;;;;;12.45;79.96;101230.16;5015392;28;1895;-88
2022/08/08 03:37:30;;;;;;;;;;;;;;;12.63;79.98;101232.34;5011119;28;1404;-87
2022/08/08 03:39:57;;;;;;;;;;;;;;;12.62;79.72;101235.38;5008908;28;1513;-88
2022/08/08 03:42:22;;;;;;;;;;;;;;;12.63;78.95;101237.03;5009101;28;1445;-88
2022/08/08 03:44:48;;;;;;;;;;;;;;;12.57;78.66;101241.72;5009236;28;1465;-88
2022/08/08 03:47:18;;;;;;;;;;;;;;;12.47;78.78;101250.78;5013201;28;1439;-87
2022/08/08 03:49:43;;;;;;;;;;;;;;;12.54;79.58;101246.91;5005564;28;1738;-87
2022/08/08 03:52:09;;;;;;;;;;;;;;;12.58;79.67;101245.28;5011204;28;1404;-87
2022/08/08 03:54:34;;;;;;;;;;;;;;;12.52;79.76;101253.50;5011360;28;1875;-88
2022/08/08 03:57:00;;;;;;;;;;;;;;;12.53;79.43;101251.59;5010095;28;1789;-88
2022/08/08 03:59:29;;;;;;;;;;;;;;;12.52;79.44;101256.25;5010883;28;1438;-88
2022/08/08 04:01:54;;;;;;;;;;;;;;;12.43;79.30;101254.31;5011307;28;1469;-88
2022/08/08 04:04:20;;;;;;;;;;;;;;;12.27;79.86;101264.47;5008630;28;1599;-87
2022/08/08 04:06:54;;;;;;;;;;;;;;;12.16;80.55;101267.50;5007607;28;1526;-87
2022/08/08 04:09:19;;;;;;;;;;;;;;;12.21;80.77;101267.50;5010548;28;1574;-88
2022/08/08 04:11:45;;;;;;;;;;;;;;;12.32;80.71;101263.66;5011428;28;1262;-88
2022/08/08 04:14:10;;;;;;;;;;;;;;;12.44;79.97;101270.53;5003686;28;1890;-88
2022/08/08 04:16:35;;;;;;;;;;;;;;;12.50;79.43;101269.41;5002889;28;1361;-88
2022/08/08 04:19:00;;;;;;;;;;;;;;;12.30;79.47;101276.84;5000191;28;1615;-88
2022/08/08 04:21:25;;;;;;;;;;;;;;;12.20;80.00;101277.66;4997888;28;1412;-89
2022/08/08 04:23:50;;;;;;;;;;;;;;;12.17;80.61;101278.19;4999155;28;1690;-88
2022/08/08 04:26:15;;;;;;;;;;;;;;;12.26;80.45;101271.06;5001925;28;1539;-90
2022/08/08 04:28:41;;;;;;;;;;;;;;;12.15;81.44;101283.13;4997890;28;1734;-89
2022/08/08 04:31:06;;;;;;;;;;;;;;;12.15;81.02;101276.81;5000098;28;1491;-88
2022/08/08 04:33:31;;;;;;;;;;;;;;;12.21;81.17;101282.03;4998965;28;1890;-90
2022/08/08 04:35:56;;;;;;;;;;;;;;;12.31;80.53;101284.81;5010841;28;1482;-88
2022/08/08 04:38:22;;;;;;;;;;;;;;;12.11;81.13;101280.09;5000039;28;1186;-89
2022/08/08 04:40:49;;;;;;;;;;;;;;;11.98;82.14;101283.38;4999643;28;1230;-90
2022/08/08 04:43:14;;;;;;;;;;;;;;;12.17;81.63;101283.66;4982424;28;1488;-88
2022/08/08 04:45:39;;;;;;;;;;;;;;;12.31;80.53;101282.06;4998137;28;1663;-90
2022/08/08 04:48:04;;;;;;;;;;;;;;;12.23;81.40;101287.28;4996449;28;1904;-88
2022/08/08 04:50:30;;;;;;;;;;;;;;;12.28;81.34;101274.38;4992455;28;1194;-89
2022/08/08 04:52:55;;;;;;;;;;;;;;;12.19;81.70;101281.47;4998070;28;1359;-88
2022/08/08 04:55:21;;;;;;;;;;;;;;;12.16;82.01;101284.78;5002092;28;1898;-88
2022/08/08 04:57:46;;;;;;;;;;;;;;;12.07;81.88;101279.00;4997354;28;1762;-88
2022/08/08 05:00:11;;;;;;;;;;;;;;;12.13;82.06;101291.63;5000228;28;1645;-89
2022/08/08 05:02:37;;;;;;;;;;;;;;;12.13;82.18;101280.66;5004072;28;1153;-88
2022/08/08 05:05:02;;;;;;;;;;;;;;;12.14;82.00;101289.72;4999861;28;1577;-89
2022/08/08 05:07:27;;;;;;;;;;;;;;;12.13;82.64;101290.81;5002648;28;1432;-88
2022/08/08 05:09:52;;;;;;;;;;;;;;;12.09;82.47;101285.03;5002896;28;1325;-89
2022/08/08 05:12:18;;;;;;;;;;;;;;;12.25;82.53;101285.88;5001152;28;1277;-88
2022/08/08 05:14:43;;;;;;;;;;;;;;;12.22;82.48;101288.34;4997756;28;1951;-87
2022/08/08 05:17:08;;;;;;;;;;;;;;;12.13;82.88;101293.56;4996790;28;1439;-89
2022/08/08 05:19:35;;;;;;;;;;;;;;;12.01;83.79;101298.47;5002737;28;1417;-89
2022/08/08 05:22:01;;;;;;;;;;;;;;;12.10;83.70;101291.34;5001356;28;1496;-87
2022/08/08 05:24:26;;;;;;;;;;;;;;;12.22;84.09;101291.09;5002713;28;1429;-88
2022/08/08 05:26:51;;;;;;;;;;;;;;;12.49;83.48;101299.94;5002783;28;1161;-90
2022/08/08 05:29:16;;;;;;;;;;;;;;;12.61;83.03;101294.97;5000237;28;1721;-89
2022/08/08 05:31:41;;;;;;;;;;;;;;;12.65;83.28;101295.25;5003271;28;1330;-88
2022/08/08 05:34:14;;;;;;;;;;;;;;;12.72;83.81;101298.53;5000962;28;1957;-88
2022/08/08 05:36:40;;;;;;;;;;;;;;;12.80;84.09;101300.75;4992220;28;1492;-90
2022/08/08 05:39:05;;;;;;;;;;;;;;;12.82;84.67;101304.03;5003151;28;1277;-90
2022/08/08 05:41:33;;;;;;;;;;;;;;;12.93;85.18;101296.63;5002772;28;809;-89
2022/08/08 05:44:02;;;;;;;;;;;;;;;12.88;85.47;101302.94;5002329;28;1610;-89
2022/08/08 05:46:27;;;;;;;;;;;;;;;13.01;84.67;101301.56;5003512;28;1075;-89
2022/08/08 05:48:53;;;;;;;;;;;;;;;13.08;84.68;101294.66;5002423;28;1239;-88
2022/08/08 05:51:19;;;;;;;;;;;;;;;13.03;86.23;101302.91;5002349;28;1765;-87
2022/08/08 05:53:45;;;;;;;;;;;;;;;13.06;86.17;101296.88;5001813;28;1973;-89
2022/08/08 05:56:12;;;;;;;;;;;;;;;13.25;85.15;101308.13;4984169;28;1416;-86
2022/08/08 05:58:38;;;;;;;;;;;;;;;13.37;84.80;101305.06;5000605;28;1349;-88
2022/08/08 06:01:04;;;;;;;;;;;;;;;13.36;83.95;101304.22;4995225;28;1441;-89
2022/08/08 06:03:30;;;;;;;;;;;;;;;13.42;84.33;101307.81;5004769;28;1476;-89
2022/08/08 06:05:56;;;;;;;;;;;;;;;13.48;83.68;101310.25;4996617;28;1535;-88
2022/08/08 06:08:23;;;;;;;;;;;;;;;13.55;84.13;101304.44;5002009;28;1278;-87
2022/08/08 06:10:48;;;;;;;;;;;;;;;13.58;84.00;101304.72;5003231;28;1150;-88
2022/08/08 06:13:14;;;;;;;;;;;;;;;13.63;83.46;101312.13;4999843;28;1894;-89
2022/08/08 06:15:41;;;;;;;;;;;;;;;13.69;84.71;101315.69;5000446;28;1404;-88
2022/08/08 06:18:07;;;;;;;;;;;;;;;13.73;83.97;101306.59;4998431;28;1793;-88
2022/08/08 06:20:32;;;;;;;;;;;;;;;13.71;84.49;101314.28;4997975;28;1177;-89
2022/08/08 06:22:57;;;;;;;;;;;;;;;13.76;84.00;101311.53;5000019;28;782;-86
2022/08/08 06:25:22;;;;;;;;;;;;;;;13.79;84.71;101307.38;4999832;28;1205;-89
2022/08/08 06:27:48;;;;;;;;;;;;;;;13.84;84.46;101312.88;4999958;28;1202;-90
2022/08/08 06:30:14;;;;;;;;;;;;;;;13.90;85.05;101309.81;4997746;28;1365;-88
2022/08/08 06:32:39;;;;;;;;;;;;;;;13.94;85.07;101315.59;4985084;28;1519;-90
2022/08/08 06:35:08;;;;;;;;;;;;;;;13.96;84.85;101316.91;4997046;28;1955;-90
2022/08/08 06:37:35;;;;;;;;;;;;;;;14.00;85.12;101317.19;4998826;28;1610;-89
2022/08/08 06:40:02;;;;;;;;;;;;;;;14.03;84.56;101328.44;4997584;28;1603;-89
2022/08/08 06:42:30;;;;;;;;;;;;;;;14.09;84.12;101325.69;4997369;28;1536;-87
2022/08/08 06:44:55;;;;;;;;;;;;;;;14.12;83.86;101319.63;4997352;28;1194;-89
2022/08/08 06:47:20;;;;;;;;;;;;;;;14.15;83.25;101317.09;4997339;28;1468;-90
2022/08/08 06:49:46;;;;;;;;;;;;;;;14.20;83.29;101314.34;4998493;28;826;-88
2022/08/08 06:52:11;;;;;;;;;;;;;;;14.23;82.58;101324.75;4994192;28;1778;-89
2022/08/08 06:54:36;;;;;;;;;;;;;;;14.26;83.74;101323.38;4997499;28;1901;-91
2022/08/08 06:57:02;;;;;;;;;;;;;;;14.27;84.06;101323.09;4999382;28;1369;-88
2022/08/08 06:59:27;;;;;;;;;;;;;;;14.32;83.59;101327.72;4997232;28;1558;-91
2022/08/08 07:01:59;;;;;;;;;;;;;;;14.38;83.09;101323.84;4995040;28;1476;-89
2022/08/08 07:04:26;;;;;;;;;;;;;;;14.43;82.27;101320.28;4988002;28;1821;-89
2022/08/08 07:06:55;;;;;;;;;;;;;;;14.46;81.34;101325.22;4996244;28;1511;-89
2022/08/08 07:09:23;;;;;;;;;;;;;;;14.52;82.18;101319.38;4998542;28;1476;-87
2022/08/08 07:11:50;;;;;;;;;;;;;;;14.56;81.54;101323.19;5000247;28;1536;-90
2022/08/08 07:14:16;;;;;;;;;;;;;;;14.58;81.33;101317.41;5001492;28;1890;-91
2022/08/08 07:16:41;;;;;;;;;;;;;;;14.61;81.01;101327.84;4999598;28;1312;-90
2022/08/08 07:19:22;;;;;;;;;;;;;;;14.63;81.88;101320.91;4993408;28;1566;-89
2022/08/08 07:21:54;;;;;;;;;;;;;;;14.67;80.78;101323.94;4995485;28;1582;-89
2022/08/08 07:24:24;;;;;;;;;;;;;;;14.73;79.85;101317.25;4998456;28;1381;-89
2022/08/08 07:26:51;;;;;;;;;;;;;;;14.78;79.41;101322.75;4997476;28;1841;-88
2022/08/08 07:29:17;;;;;;;;;;;;;;;14.85;81.30;101319.66;4997811;28;809;-86
2022/08/08 07:31:42;;;;;;;;;;;;;;;14.89;79.96;101321.53;4994842;28;1514;-87
2022/08/08 07:34:09;;;;;;;;;;;;;;;14.94;80.74;101320.69;4994411;28;1890;-86
2022/08/08 07:36:34;;;;;;;;;;;;;;;14.99;79.78;101318.69;4986397;28;1697;-86
2022/08/08 07:39:00;;;;;;;;;;;;;;;14.97;80.45;101323.66;4992150;28;1640;-86
2022/08/08 07:41:26;;;;;;;;;;;;;;;15.05;80.13;101322.25;4982572;28;1926;-86
2022/08/08 07:43:54;;;;;;;;;;;;;;;15.11;79.98;101324.66;4993179;28;1754;-86
2022/08/08 07:46:19;;;;;;;;;;;;;;;15.17;80.71;101319.91;4996817;28;1480;-85
2022/08/08 07:48:44;;;;;;;;;;;;;;;15.25;81.64;101319.25;4997081;28;1028;-86
2022/08/08 07:51:10;;;;;;;;;;;;;;;15.31;80.91;101320.84;4986480;28;1739;-85
2022/08/08 07:53:48;;;;;;;;;;;;;;;15.32;80.52;101321.66;4994406;28;1893;-85
2022/08/08 07:56:15;;;;;;;;;;;;;;;15.34;81.39;101325.78;4997752;28;1182;-84
2022/08/08 07:58:41;;;;;;;;;;;;;;;15.37;80.93;101324.41;4998671;28;1433;-87
2022/08/08 08:01:10;;;;;;;;;;;;;;;15.42;80.53;101327.09;4996267;28;1382;-87
2022/08/08 08:03:35;;;;;;;;;;;;;;;15.48;80.31;101332.25;4997753;28;2002;-86
2022/08/08 08:06:03;;;;;;;;;;;;;;;15.56;79.49;101333.59;4994566;28;1321;-86
2022/08/08 08:08:31;;;;;;;;;;;;;;;15.64;79.72;101330.19;4994350;28;1572;-86
2022/08/08 08:10:56;;;;;;;;;;;;;;;15.66;80.06;101330.69;4994697;28;834;-86
2022/08/08 08:13:34;;;;;;;;;;;;;;;15.69;80.52;101334.81;4994700;28;1899;-86
2022/08/08 08:16:02;;;;;;;;;;;;;;;15.70;81.70;101329.00;4994578;28;889;-86
2022/08/08 08:18:47;;;;;;;;;;;;;;;15.78;81.68;101331.09;4994166;28;1878;-87
2022/08/08 08:21:14;;;;;;;;;;;;;;;15.82;81.08;101336.88;4991544;28;1540;-89
2022/08/08 08:23:40;;;;;;;;;;;;;;;15.83;80.73;101335.72;4988009;28;1735;-87
2022/08/08 08:26:05;;;;;;;;;;;;;;;15.87;81.06;101323.00;4993031;28;972;-90
2022/08/08 08:28:30;;;;;;;;;;;;;;;15.91;80.36;101328.75;4994308;28;818;-90
2022/08/08 08:30:57;;;;;;;;;;;;;;;16.01;79.57;101326.66;4994406;28;1023;-90
2022/08/08 08:33:23;;;;;;;;;;;;;;;16.07;78.74;101321.91;4994106;28;1956;-89
2022/08/08 08:35:48;;;;;;;;;;;;;;;16.14;79.92;101322.38;4989474;28;1662;-86
2022/08/08 08:38:14;;;;;;;;;;;;;;;16.16;79.49;101326.44;4991457;28;1276;-89
2022/08/08 08:40:39;;;;;;;;;;;;;;;16.23;80.40;101323.34;4995410;28;1759;-88
2022/08/08 08:43:04;;;;;;;;;;;;;;;16.25;80.44;101319.13;4990981;28;1671;-88
2022/08/08 08:45:30;;;;;;;;;;;;;;;16.34;79.91;101324.81;4995880;28;1328;-90
2022/08/08 08:47:55;;;;;;;;;;;;;;;16.33;80.01;101322.38;4996594;28;1841;-89
2022/08/08 08:50:21;;;;;;;;;;;;;;;16.36;78.77;101314.28;4989762;28;1979;-88
2022/08/08 08:52:46;;;;;;;;;;;;;;;16.50;78.72;101320.69;4994184;28;1650;-86
2022/08/08 08:55:14;;;;;;;;;;;;;;;16.55;77.78;101325.34;4992876;28;1899;-88
2022/08/08 08:57:41;;;;;;;;;;;;;;;16.58;76.41;101322.81;4990284;28;1707;-86
2022/08/08 09:00:07;;;;;;;;;;;;;;;16.61;76.90;101326.91;4993422;28;1011;-86
2022/08/08 09:02:33;;;;;;;;;;;;;;;16.64;77.49;101320.81;4993518;28;892;-89
2022/08/08 09:05:01;;;;;;;;;;;;;;;16.68;76.21;101323.78;4990148;28;1609;-91
2022/08/08 09:07:27;;;;;;;;;;;;;;;16.82;75.81;101316.38;4992821;28;1306;-89
2022/08/08 09:09:53;;;;;;;;;;;;;;;16.90;74.63;101313.72;4993264;28;1638;-90
2022/08/08 09:12:20;;;;;;;;;;;;;;;16.94;75.75;101322.22;4991704;28;1420;-89
2022/08/08 09:14:46;;;;;;;;;;;;;;;16.93;75.55;101323.34;4993026;28;1878;-88
2022/08/08 09:17:12;;;;;;;;;;;;;;;17.01;74.00;101322.69;4993011;28;1398;-89
2022/08/08 09:19:38;;;;;;;;;;;;;;;17.05;75.19;101322.88;4993675;28;818;-88
2022/08/08 09:22:04;;;;;;;;;;;;;;;17.11;73.19;101324.41;4991022;28;1538;-89
2022/08/08 09:24:30;;;;;;;;;;;;;;;17.18;74.34;101320.13;4994024;28;1369;-89
2022/08/08 09:27:01;;;;;;;;;;;;;;;17.20;72.26;101317.06;4992215;28;1287;-88
2022/08/08 09:29:30;;;;;;;;;;;;;;;17.26;72.65;101310.31;4992488;28;1353;-88
2022/08/08 09:32:01;;;;;;;;;;;;;;;17.32;73.38;101311.84;4994441;28;1385;-88
2022/08/08 09:34:30;;;;;;;;;;;;;;;17.38;72.18;101308.69;4992127;28;1894;-87
2022/08/08 09:37:00;;;;;;;;;;;;;;;17.48;72.37;101304.91;4991953;28;1637;-90
2022/08/08 09:39:28;;;;;;;;;;;;;;;17.46;72.33;101309.09;4991837;28;1308;-87
2022/08/08 09:42:01;;;;;;;;;;;;;;;17.46;71.13;101304.38;4997130;28;945;-89
2022/08/08 09:44:45;;;;;;;;;;;;;;;17.56;71.52;101303.34;4997556;28;1150;-88
2022/08/08 09:47:12;;;;;;;;;;;;;;;17.72;69.42;101302.75;4997800;28;881;-88
2022/08/08 09:49:38;;;;;;;;;;;;;;;17.70;67.92;101305.03;4998115;28;1542;-89
2022/08/08 09:52:04;;;;;;;;;;;;;;;17.74;68.26;101302.47;4997729;28;1785;-88
2022/08/08 09:54:33;;;;;;;;;;;;;;;17.80;66.75;101301.22;4997542;28;1894;-90
2022/08/08 09:57:00;;;;;;;;;;;;;;;17.83;66.82;101295.06;4999494;28;1091;-87
2022/08/08 09:59:27;;;;;;;;;;;;;;;17.82;68.88;101295.38;4999838;28;1020;-88
2022/08/08 10:01:52;;;;;;;;;;;;;;;17.91;66.87;101299.88;4997744;28;802;-88
2022/08/08 10:04:19;;;;;;;;;;;;;;;17.95;66.57;101294.56;4999038;28;1286;-88
2022/08/08 10:06:46;;;;;;;;;;;;;;;18.00;67.55;101295.25;5000430;28;1680;-89
2022/08/08 10:09:11;;;;;;;;;;;;;;;18.05;66.05;101302.63;5000962;28;1130;-88
2022/08/08 10:11:37;;;;;;;;;;;;;;;18.07;66.61;101295.63;4998408;28;945;-90
2022/08/08 10:14:03;;;;;;;;;;;;;;;18.11;67.61;101293.06;4998052;28;1890;-88
2022/08/08 10:16:38;;;;;;;;;;;;;;;18.17;64.59;101293.78;4998177;28;841;-88
2022/08/08 10:19:05;;;;;;;;;;;;;;;18.35;62.66;101296.38;4997811;28;826;-89
2022/08/08 10:21:33;;;;;;;;;;;;;;;18.42;62.26;101287.63;4993865;28;1810;-90
2022/08/08 10:24:02;;;;;;;;;;;;;;;18.41;62.93;101291.53;4996116;28;1372;-89
2022/08/08 10:26:30;;;;;;;;;;;;;;;18.54;62.43;101283.16;4996938;28;826;-89
2022/08/08 10:29:03;;;;;;;;;;;;;;;18.53;61.79;101284.31;4999343;28;877;-88
2022/08/08 10:34:14;;;;;;;;;;;;;;;18.58;63.63;101285.34;4998752;28;1894;-89
2022/08/08 10:36:40;;;;;;;;;;;;;;;18.60;64.77;101285.84;4999267;28;1641;-87
2022/08/08 10:39:07;;;;;;;;;;;;;;;18.62;64.90;101280.81;4997402;28;1460;-88
2022/08/08 10:41:34;;;;;;;;;;;;;;;18.71;64.48;101288.06;4998751;28;908;-88
2022/08/08 10:44:00;;;;;;;;;;;;;;;18.71;64.85;101276.16;4997382;28;1212;-87
2022/08/08 10:46:25;;;;;;;;;;;;;;;18.76;63.14;101279.59;4995425;28;1601;-89
2022/08/08 10:48:51;;;;;;;;;;;;;;;18.80;62.12;101274.22;4996657;28;885;-88
2022/08/08 10:51:16;;;;;;;;;;;;;;;18.78;62.14;101279.28;4994080;28;1479;-88
2022/08/08 10:53:41;;;;;;;;;;;;;;;18.81;64.46;101282.22;4993759;28;1969;-88
2022/08/08 10:56:09;;;;;;;;;;;;;;;18.87;64.02;101275.44;4995925;28;829;-89
2022/08/08 10:58:34;;;;;;;;;;;;;;;18.93;64.09;101280.84;4996120;28;845;-88
2022/08/08 11:01:06;;;;;;;;;;;;;;;18.95;58.85;101275.78;4994293;28;1688;-89
2022/08/08 11:03:39;;;;;;;;;;;;;;;18.96;61.01;101280.22;4992035;28;1327;-88
2022/08/08 11:06:05;;;;;;;;;;;;;;;18.97;62.38;101274.31;4994767;28;1231;-88
2022/08/08 11:08:30;;;;;;;;;;;;;;;19.03;63.22;101281.41;4995341;28;1016;-87
2022/08/08 11:11:03;;;;;;;;;;;;;;;19.08;63.57;101275.69;4994350;28;1505;-89
2022/08/08 11:13:39;;;;;;;;;;;;;;;19.13;63.34;101275.56;4992834;28;1898;-88
2022/08/08 11:16:04;;;;;;;;;;;;;;;19.16;62.59;101274.09;4990614;28;1749;-90
2022/08/08 11:18:32;;;;;;;;;;;;;;;19.18;62.52;101272.66;4994751;28;1111;-87
2022/08/08 11:20:59;;;;;;;;;;;;;;;19.20;63.01;101275.94;4994977;28;1507;-86
2022/08/08 11:23:27;;;;;;;;;;;;;;;19.25;60.91;101264.69;4994871;28;1012;-87
2022/08/08 11:25:52;;;;;;;;;;;;;;;19.29;60.88;101262.09;4992790;28;1499;-88
2022/08/08 11:28:22;;;;;;;;;;;;;;;19.37;59.98;101261.31;4994499;28;1510;-88
2022/08/08 11:30:47;;;;;;;;;;;;;;;19.41;59.73;101256.72;4994846;28;1622;-88
2022/08/08 11:33:12;;;;;;;;;;;;;;;19.49;62.26;101255.16;4994986;28;1329;-89
2022/08/08 11:35:38;;;;;;;;;;;;;;;19.58;62.10;101258.78;4992768;28;1966;-88
2022/08/08 11:38:04;;;;;;;;;;;;;;;19.62;60.02;101259.78;4984489;28;1457;-87
2022/08/08 11:40:29;;;;;;;;;;;;;;;19.63;58.66;101256.69;4994387;28;1713;-88
2022/08/08 11:42:54;;;;;;;;;;;;;;;19.67;58.91;101254.06;4993573;28;1768;-87
2022/08/08 11:45:20;;;;;;;;;;;;;;;19.77;57.72;101255.72;4994559;28;1205;-87
2022/08/08 11:47:46;;;;;;;;;;;;;;;19.77;57.59;101255.72;4994547;28;1613;-89
2022/08/08 11:50:12;;;;;;;;;;;;;;;19.78;58.87;101262.91;4994713;28;1051;-88
2022/08/08 11:52:38;;;;;;;;;;;;;;;19.81;58.03;101257.53;4993993;28;1172;-87
2022/08/08 11:55:21;;;;;;;;;;;;;;;19.86;56.33;101254.59;4995399;28;1898;-88
2022/08/08 11:57:47;;;;;;;;;;;;;;;19.94;56.23;101239.91;4995982;28;924;-89
2022/08/08 12:00:16;;;;;;;;;;;;;;;20.08;57.01;101239.72;4994593;28;869;-89
2022/08/08 12:02:49;;;;;;;;;;;;;;;20.03;56.94;101240.72;4994236;28;822;-87
2022/08/08 12:05:15;;;;;;;;;;;;;;;20.08;57.77;101238.91;4993621;28;1696;-89
2022/08/08 12:07:47;;;;;;;;;;;;;;;20.12;57.29;101234.34;4993547;28;1387;-87
2022/08/08 12:10:14;;;;;;;;;;;;;;;20.28;55.13;101238.25;4994854;28;992;-89
2022/08/08 12:12:40;;;;;;;;;;;;;;;20.26;54.29;101235.00;4994836;28;845;-89
2022/08/08 12:15:05;;;;;;;;;;;;;;;20.27;55.67;101234.66;4992688;28;1950;-87
2022/08/08 12:17:32;;;;;;;;;;;;;;;20.28;56.60;101233.53;4994345;28;1760;-89
2022/08/08 12:19:57;;;;;;;;;;;;;;;20.35;57.69;101233.88;4995233;28;1075;-89
2022/08/08 12:22:22;;;;;;;;;;;;;;;20.43;57.29;101232.22;4995804;28;911;-89
2022/08/08 12:24:48;;;;;;;;;;;;;;;20.44;58.46;101228.31;4995588;28;1271;-89
2022/08/08 12:27:15;;;;;;;;;;;;;;;20.56;56.98;101231.25;4993417;28;1191;-87
2022/08/08 12:29:41;;;;;;;;;;;;;;;20.59;57.09;101238.91;4993765;28;1453;-90
2022/08/08 12:32:09;;;;;;;;;;;;;;;20.66;55.53;101230.09;4993067;28;1720;-88
2022/08/08 12:34:41;;;;;;;;;;;;;;;20.65;54.18;101239.56;4989373;28;1965;-86
2022/08/08 12:37:11;;;;;;;;;;;;;;;20.71;55.62;101232.69;4995636;28;1193;-87
2022/08/08 12:39:37;;;;;;;;;;;;;;;20.76;54.82;101224.97;4994287;28;817;-89
2022/08/08 12:42:02;;;;;;;;;;;;;;;20.88;55.64;101226.25;4993738;28;1209;-89
2022/08/08 12:44:28;;;;;;;;;;;;;;;20.94;55.52;101222.13;4996856;28;1212;-89
2022/08/08 12:46:57;;;;;;;;;;;;;;;21.12;56.10;101229.28;4995582;28;937;-89
2022/08/08 12:49:29;;;;;;;;;;;;;;;21.19;53.85;101223.22;4993919;28;1680;-89
2022/08/08 12:51:54;;;;;;;;;;;;;;;21.24;52.06;101221.06;4992709;28;1517;-88
2022/08/08 12:54:21;;;;;;;;;;;;;;;21.38;52.01;101224.44;4992579;28;1902;-88
2022/08/08 12:56:46;;;;;;;;;;;;;;;21.45;52.33;101218.31;4994726;28;821;-89
2022/08/08 12:59:17;;;;;;;;;;;;;;;21.55;54.14;101215.16;4994867;28;1004;-87
2022/08/08 13:01:48;;;;;;;;;;;;;;;21.53;54.91;101218.28;4995329;28;851;-89
2022/08/08 13:04:15;;;;;;;;;;;;;;;21.61;51.94;101215.78;4993880;28;1307;-88
2022/08/08 13:06:51;;;;;;;;;;;;;;;21.66;54.62;101218.38;4993670;28;1476;-88
2022/08/08 13:09:16;;;;;;;;;;;;;;;21.82;53.45;101220.22;4992876;28;1393;-87
2022/08/08 13:11:51;;;;;;;;;;;;;;;22.03;53.14;101219.47;4993952;28;790;-87